Time;durP1;ratioP1;P1;durP2;ratioP2;P2;SDS_P1;SDS_P2;PMS_P1;PMS_P2;Temp;Humidity;BMP_temperature;BMP_pressure;BME280_temperature;BME280_humidity;BME280_pressure;Samples;Min_cycle;Max_cycle;Signal;HPM_P1;HPM_P2
2023/10/08 00:03:27;;;;;;;12.80;9.48;;;;;;;;;;10332726;28;20038;-59
2023/10/08 00:08:28;;;;;;;16.00;11.00;;;;;;;;;;10332992;28;20077;-58
2023/10/08 00:13:29;;;;;;;15.68;10.57;;;;;;;;;;10331481;28;20112;-59
2023/10/08 00:18:30;;;;;;;16.13;10.05;;;;;;;;;;10332155;28;20118;-59
2023/10/08 00:23:30;;;;;;;14.80;10.27;;;;;;;;;;10331681;28;20375;-59
2023/10/08 00:28:31;;;;;;;14.30;10.13;;;;;;;;;;10331815;28;20382;-60
2023/10/08 00:33:32;;;;;;;14.60;11.18;;;;;;;;;;10330840;28;20436;-58
2023/10/08 00:38:32;;;;;;;14.43;10.63;;;;;;;;;;10331182;28;20033;-60
2023/10/08 00:43:35;;;;;;;15.48;10.38;;;;;;;;;;10330566;28;20190;-60
2023/10/08 00:48:36;;;;;;;15.23;10.02;;;;;;;;;;10329512;28;20034;-61
2023/10/08 00:53:40;;;;;;;16.30;10.38;;;;;;;;;;10329201;28;20038;-60
2023/10/08 00:58:45;;;;;;;14.35;10.15;;;;;;;;;;10330449;28;20046;-61
2023/10/08 01:03:47;;;;;;;14.05;10.50;;;;;;;;;;10330075;28;20479;-61
2023/10/08 01:08:52;;;;;;;12.25;9.95;;;;;;;;;;10329896;28;20042;-61
2023/10/08 01:13:54;;;;;;;14.38;9.68;;;;;;;;;;10329105;28;20054;-61
2023/10/08 01:18:55;;;;;;;14.73;10.40;;;;;;;;;;10329060;28;20022;-60
2023/10/08 01:23:56;;;;;;;12.45;10.30;;;;;;;;;;10344385;28;20030;-60
2023/10/08 01:28:56;;;;;;;12.48;9.65;;;;;;;;;;10329039;28;20042;-61
2023/10/08 01:33:57;;;;;;;14.07;10.27;;;;;;;;;;10329366;28;20030;-61
2023/10/08 01:38:58;;;;;;;14.93;9.80;;;;;;;;;;10328775;28;20386;-61
2023/10/08 01:43:59;;;;;;;19.27;10.02;;;;;;;;;;10329027;28;20050;-61
2023/10/08 01:49:04;;;;;;;13.68;9.98;;;;;;;;;;10328924;28;20080;-61
2023/10/08 01:54:11;;;;;;;16.52;9.70;;;;;;;;;;10327820;28;20228;-61
2023/10/08 01:59:15;;;;;;;12.20;9.20;;;;;;;;;;10327370;28;20117;-60
2023/10/08 02:04:17;;;;;;;13.80;9.77;;;;;;;;;;10327430;28;20363;-59
2023/10/08 02:09:19;;;;;;;15.27;9.32;;;;;;;;;;10327774;28;20042;-59
2023/10/08 02:14:22;;;;;;;12.40;9.30;;;;;;;;;;10327476;28;20478;-60
2023/10/08 02:19:29;;;;;;;18.42;9.63;;;;;;;;;;10327613;28;20062;-59
2023/10/08 02:24:30;;;;;;;18.30;10.65;;;;;;;;;;10327152;28;20537;-59
2023/10/08 02:29:31;;;;;;;17.70;9.75;;;;;;;;;;10326819;28;20030;-59
2023/10/08 02:34:31;;;;;;;15.15;10.23;;;;;;;;;;10326943;28;20031;-59
2023/10/08 02:39:32;;;;;;;14.43;9.50;;;;;;;;;;10326520;28;20065;-61
2023/10/08 02:44:33;;;;;;;13.73;9.70;;;;;;;;;;10326710;28;20037;-60
2023/10/08 02:49:34;;;;;;;18.70;9.88;;;;;;;;;;10326542;28;20034;-62
2023/10/08 02:54:37;;;;;;;14.10;9.68;;;;;;;;;;10326921;28;20042;-62
2023/10/08 02:59:42;;;;;;;14.18;9.80;;;;;;;;;;10326778;28;20037;-61
2023/10/08 03:04:45;;;;;;;12.35;9.75;;;;;;;;;;10326655;28;20034;-61
2023/10/08 03:09:45;;;;;;;15.88;10.88;;;;;;;;;;10326960;28;20423;-60
2023/10/08 03:15:01;;;;;;;11.80;8.98;;;;;;;;;;10333343;28;20050;-61
2023/10/08 03:20:29;;;;;;;11.20;9.07;;;;;;;;;;10333799;28;20454;-61
2023/10/08 03:25:24;;;;;;;14.30;9.23;;;;;;;;;;10333889;28;20030;-59
2023/10/08 03:30:26;;;;;;;13.15;9.38;;;;;;;;;;10334326;28;20170;-61
2023/10/08 03:35:36;;;;;;;15.90;10.25;;;;;;;;;;10333809;28;20034;-60
2023/10/08 03:40:43;;;;;;;14.10;9.73;;;;;;;;;;10332896;28;20035;-60
2023/10/08 03:51:06;;;;;;;13.95;10.30;;;;;;;;;;10332944;28;20465;-60
2023/10/08 03:56:07;;;;;;;13.60;8.70;;;;;;;;;;10332948;28;20045;-61
2023/10/08 04:01:15;;;;;;;16.75;9.57;;;;;;;;;;10332780;28;20480;-60
2023/10/08 04:06:16;;;;;;;9.63;8.55;;;;;;;;;;10331390;28;20038;-59
2023/10/08 04:11:32;;;;;;;16.10;10.15;;;;;;;;;;10331777;28;20050;-59
2023/10/08 04:16:37;;;;;;;12.32;9.07;;;;;;;;;;10332671;28;20233;-59
2023/10/08 04:21:42;;;;;;;12.48;8.90;;;;;;;;;;10331644;28;20026;-59
2023/10/08 04:26:43;;;;;;;17.85;9.63;;;;;;;;;;10332118;28;20050;-61
2023/10/08 04:31:46;;;;;;;12.80;9.48;;;;;;;;;;10331239;28;20026;-61
2023/10/08 04:36:48;;;;;;;17.42;10.00;;;;;;;;;;10330992;28;20026;-61
2023/10/08 04:41:53;;;;;;;13.13;9.30;;;;;;;;;;10331887;28;20034;-61
2023/10/08 04:46:54;;;;;;;18.65;10.55;;;;;;;;;;10330924;28;20474;-62
2023/10/08 04:51:57;;;;;;;11.27;9.55;;;;;;;;;;10330551;28;20018;-62
2023/10/08 04:57:00;;;;;;;13.50;9.82;;;;;;;;;;10330836;28;20085;-62
2023/10/08 05:02:19;;;;;;;14.88;10.45;;;;;;;;;;10330283;28;20041;-61
2023/10/08 05:12:47;;;;;;;11.98;8.90;;;;;;;;;;10328685;28;20498;-61
2023/10/08 05:23:20;;;;;;;14.98;10.13;;;;;;;;;;10328498;28;20015;-61
2023/10/08 05:28:24;;;;;;;11.70;9.48;;;;;;;;;;10328239;28;20081;-60
2023/10/08 05:33:25;;;;;;;15.70;10.05;;;;;;;;;;10328231;28;20617;-61
2023/10/08 05:43:55;;;;;;;15.70;10.05;;;;;;;;;;10328068;28;20030;-60
2023/10/08 05:54:11;;;;;;;13.85;9.30;;;;;;;;;;10328210;28;20037;-60
2023/10/08 05:59:17;;;;;;;12.82;9.73;;;;;;;;;;10326616;28;20110;-60
2023/10/08 06:04:42;;;;;;;10.98;8.85;;;;;;;;;;10327048;28;20030;-61
2023/10/08 06:09:50;;;;;;;13.32;9.27;;;;;;;;;;10327193;28;20084;-60
2023/10/08 06:15:11;;;;;;;11.73;9.05;;;;;;;;;;10326979;28;20054;-61
2023/10/08 06:20:16;;;;;;;12.73;9.45;;;;;;;;;;10327207;28;20030;-61
2023/10/08 06:25:18;;;;;;;11.85;8.90;;;;;;;;;;10327677;28;20034;-61
2023/10/08 06:30:18;;;;;;;12.48;8.88;;;;;;;;;;10326728;28;20096;-61
2023/10/08 06:35:24;;;;;;;12.52;9.60;;;;;;;;;;10326905;28;20418;-61
2023/10/08 06:45:44;;;;;;;26.63;8.95;;;;;;;;;;10327449;28;20459;-60
2023/10/08 06:50:45;;;;;;;24.40;9.50;;;;;;;;;;10333220;28;20426;-59
2023/10/08 06:55:48;;;;;;;21.58;8.77;;;;;;;;;;10334812;28;20533;-58
2023/10/08 07:00:48;;;;;;;13.75;8.10;;;;;;;;;;10333812;28;20033;-61
2023/10/08 07:06:03;;;;;;;13.63;8.32;;;;;;;;;;10334304;28;20034;-60
2023/10/08 07:11:11;;;;;;;23.25;8.98;;;;;;;;;;10332349;28;20492;-61
2023/10/08 07:16:11;;;;;;;;;;;;;;;;;;10334816;28;20486;-59
2023/10/08 07:21:12;;;;;;;13.27;7.90;;;;;;;;;;10334397;28;20008;-60
2023/10/08 07:26:17;;;;;;;14.07;8.05;;;;;;;;;;10333933;28;20030;-59
2023/10/08 07:31:23;;;;;;;19.55;7.63;;;;;;;;;;10333186;28;20026;-60
2023/10/08 07:36:29;;;;;;;16.92;9.63;;;;;;;;;;10332573;28;20250;-60
2023/10/08 07:41:29;;;;;;;15.73;10.00;;;;;;;;;;10333125;28;20474;-59
2023/10/08 07:46:30;;;;;;;14.98;8.95;;;;;;;;;;10333053;28;20065;-59
2023/10/08 07:51:31;;;;;;;15.82;8.45;;;;;;;;;;10333093;28;20027;-60
2023/10/08 07:56:31;;;;;;;12.63;8.65;;;;;;;;;;10331910;28;20038;-59
2023/10/08 08:01:34;;;;;;;17.38;8.23;;;;;;;;;;10332764;28;20273;-59
2023/10/08 08:06:34;;;;;;;10.68;8.00;;;;;;;;;;10332422;28;20038;-60
2023/10/08 08:11:36;;;;;;;15.23;7.57;;;;;;;;;;10331501;28;20042;-59
2023/10/08 08:16:37;;;;;;;12.10;7.45;;;;;;;;;;10331649;28;20092;-59
2023/10/08 08:21:44;;;;;;;17.60;7.82;;;;;;;;;;10332375;28;20034;-60
2023/10/08 08:27:01;;;;;;;13.00;7.68;;;;;;;;;;10331164;28;20398;-59
2023/10/08 08:32:04;;;;;;;23.80;7.68;;;;;;;;;;10332096;28;20037;-59
2023/10/08 08:37:04;;;;;;;10.68;7.10;;;;;;;;;;10331802;28;20031;-59
2023/10/08 08:42:05;;;;;;;16.15;7.80;;;;;;;;;;10331079;28;20030;-59
2023/10/08 08:47:07;;;;;;;12.63;6.88;;;;;;;;;;10331183;28;20022;-60
2023/10/08 08:52:08;;;;;;;15.73;7.45;;;;;;;;;;10329068;28;20026;-59
2023/10/08 08:57:16;;;;;;;12.07;7.60;;;;;;;;;;10330723;28;20022;-59
2023/10/08 09:02:18;;;;;;;9.55;6.82;;;;;;;;;;10330647;28;20084;-59
2023/10/08 09:07:21;;;;;;;12.20;6.68;;;;;;;;;;10330041;28;20036;-59
2023/10/08 09:12:23;;;;;;;13.38;6.63;;;;;;;;;;10328459;28;20269;-59
2023/10/08 09:17:25;;;;;;;15.07;8.10;;;;;;;;;;10329897;28;20053;-59
2023/10/08 09:22:27;;;;;;;14.20;7.50;;;;;;;;;;10329070;28;20030;-59
2023/10/08 09:27:27;;;;;;;14.35;7.82;;;;;;;;;;10328749;28;20029;-59
2023/10/08 09:32:30;;;;;;;21.65;8.57;;;;;;;;;;10328706;28;20386;-59
2023/10/08 09:37:31;;;;;;;11.60;6.82;;;;;;;;;;10328441;28;20026;-59
2023/10/08 09:42:33;;;;;;;9.88;7.25;;;;;;;;;;10328355;28;20442;-59
2023/10/08 09:47:44;;;;;;;13.75;8.52;;;;;;;;;;10326915;28;20038;-59
2023/10/08 09:53:11;;;;;;;15.50;7.15;;;;;;;;;;10326677;28;20034;-59
2023/10/08 09:58:14;;;;;;;11.87;6.50;;;;;;;;;;10329077;28;20034;-59
2023/10/08 10:03:16;;;;;;;11.02;6.13;;;;;;;;;;10328127;28;20030;-59
2023/10/08 10:08:17;;;;;;;11.57;6.13;;;;;;;;;;10328041;28;20025;-59
2023/10/08 10:13:18;;;;;;;15.20;6.72;;;;;;;;;;10327698;28;20065;-59
2023/10/08 10:18:25;;;;;;;15.70;6.78;;;;;;;;;;10327867;28;20026;-59
2023/10/08 10:23:46;;;;;;;12.15;6.20;;;;;;;;;;10327765;28;20041;-59
2023/10/08 10:29:15;;;;;;;16.48;6.65;;;;;;;;;;10327510;28;20026;-63
2023/10/08 10:34:27;;;;;;;12.23;6.18;;;;;;;;;;10325288;28;20057;-63
2023/10/08 10:39:30;;;;;;;16.80;6.63;;;;;;;;;;10325342;28;20022;-63
2023/10/08 10:44:31;;;;;;;12.20;6.28;;;;;;;;;;10327265;28;20030;-64
2023/10/08 10:49:36;;;;;;;15.30;6.85;;;;;;;;;;10325575;28;20027;-63
2023/10/08 10:54:37;;;;;;;13.15;6.28;;;;;;;;;;10327907;28;20057;-63
2023/10/08 10:59:38;;;;;;;16.27;6.80;;;;;;;;;;10326940;28;20053;-64
2023/10/08 11:04:47;;;;;;;14.70;6.13;;;;;;;;;;10327551;28;20094;-63
2023/10/08 11:09:48;;;;;;;9.48;6.20;;;;;;;;;;10326056;28;20018;-63
2023/10/08 11:14:52;;;;;;;10.05;6.10;;;;;;;;;;10327294;28;20054;-63
2023/10/08 11:19:53;;;;;;;9.27;6.03;;;;;;;;;;10327406;28;20118;-64
2023/10/08 11:24:54;;;;;;;12.35;6.45;;;;;;;;;;10326764;28;20034;-63
2023/10/08 11:29:57;;;;;;;10.75;5.53;;;;;;;;;;10326192;28;20494;-63
2023/10/08 11:34:59;;;;;;;8.18;5.30;;;;;;;;;;10332020;28;20126;-63
2023/10/08 11:40:09;;;;;;;9.05;5.85;;;;;;;;;;10333444;28;20030;-63
2023/10/08 11:45:26;;;;;;;7.43;5.00;;;;;;;;;;10333948;28;20089;-64
2023/10/08 11:50:31;;;;;;;10.00;5.68;;;;;;;;;;10333628;28;20058;-63
2023/10/08 11:55:37;;;;;;;8.50;5.32;;;;;;;;;;10331587;28;20548;-64
2023/10/08 12:00:45;;;;;;;7.07;5.32;;;;;;;;;;10332927;28;20051;-63
2023/10/08 12:05:48;;;;;;;7.13;5.38;;;;;;;;;;10332598;28;20438;-63
2023/10/08 12:10:53;;;;;;;9.68;5.45;;;;;;;;;;10332578;28;20272;-63
2023/10/08 12:16:12;;;;;;;7.68;5.10;;;;;;;;;;10332608;28;20046;-63
2023/10/08 12:21:15;;;;;;;9.75;5.80;;;;;;;;;;10332408;28;20034;-64
2023/10/08 12:26:16;;;;;;;8.27;5.18;;;;;;;;;;10332637;28;20037;-63
2023/10/08 12:31:21;;;;;;;7.32;5.50;;;;;;;;;;10330888;28;20041;-64
2023/10/08 12:36:32;;;;;;;7.63;5.20;;;;;;;;;;10331885;28;20045;-63
2023/10/08 12:41:33;;;;;;;7.43;5.10;;;;;;;;;;10330095;28;20045;-63
2023/10/08 12:46:34;;;;;;;7.35;4.93;;;;;;;;;;10331578;28;20053;-63
2023/10/08 12:51:35;;;;;;;7.47;5.35;;;;;;;;;;10330828;28;20026;-63
2023/10/08 12:56:44;;;;;;;6.95;4.78;;;;;;;;;;10330909;28;20038;-64
2023/10/08 13:01:45;;;;;;;7.28;4.97;;;;;;;;;;10330949;28;20308;-64
2023/10/08 13:06:45;;;;;;;8.45;5.03;;;;;;;;;;10330779;28;20042;-63
2023/10/08 13:11:46;;;;;;;6.57;4.85;;;;;;;;;;10329682;28;20458;-63
2023/10/08 13:16:49;;;;;;;7.32;4.90;;;;;;;;;;10330019;28;20041;-64
2023/10/08 13:21:52;;;;;;;6.57;5.35;;;;;;;;;;10330144;28;20026;-64
2023/10/08 13:26:52;;;;;;;6.97;5.43;;;;;;;;;;10329409;28;20113;-64
2023/10/08 13:31:54;;;;;;;7.88;5.60;;;;;;;;;;10329079;28;20042;-64
2023/10/08 13:36:56;;;;;;;8.73;4.97;;;;;;;;;;10329219;28;20486;-64
2023/10/08 13:42:01;;;;;;;6.80;4.88;;;;;;;;;;10329404;28;20030;-63
2023/10/08 13:47:05;;;;;;;6.72;4.32;;;;;;;;;;10329725;28;20061;-64
2023/10/08 13:52:07;;;;;;;7.93;4.70;;;;;;;;;;10328905;28;20030;-64
2023/10/08 13:57:08;;;;;;;7.60;5.05;;;;;;;;;;10328055;28;20018;-64
2023/10/08 14:02:14;;;;;;;10.60;5.13;;;;;;;;;;10328144;28;20030;-63
2023/10/08 14:07:17;;;;;;;8.48;4.70;;;;;;;;;;10328656;28;20101;-63
2023/10/08 14:12:18;;;;;;;6.78;5.07;;;;;;;;;;10327868;28;20092;-62
2023/10/08 14:17:39;;;;;;;8.77;4.93;;;;;;;;;;10326484;28;20097;-63
2023/10/08 14:22:44;;;;;;;8.80;4.55;;;;;;;;;;10327659;28;20077;-63
2023/10/08 14:27:51;;;;;;;7.00;4.85;;;;;;;;;;10328101;28;20364;-62
2023/10/08 14:32:52;;;;;;;6.40;4.65;;;;;;;;;;10327921;28;20030;-64
2023/10/08 14:43:15;;;;;;;6.10;4.60;;;;;;;;;;10327801;28;20474;-64
2023/10/08 14:48:16;;;;;;;5.13;4.53;;;;;;;;;;10327641;28;20026;-64
2023/10/08 14:53:17;;;;;;;6.35;4.53;;;;;;;;;;10327414;28;20062;-63
2023/10/08 14:58:18;;;;;;;6.35;4.50;;;;;;;;;;10326946;28;20034;-64
2023/10/08 15:03:20;;;;;;;7.70;4.43;;;;;;;;;;10325177;28;20026;-64
2023/10/08 15:08:22;;;;;;;8.10;4.90;;;;;;;;;;10328065;28;20164;-64
2023/10/08 15:13:25;;;;;;;8.50;4.25;;;;;;;;;;10334731;28;20050;-62
2023/10/08 15:18:31;;;;;;;8.95;5.03;;;;;;;;;;10333898;28;20328;-62
2023/10/08 15:23:32;;;;;;;6.15;4.53;;;;;;;;;;10334701;28;20581;-63
2023/10/08 15:28:32;;;;;;;14.60;4.97;;;;;;;;;;10333912;28;20077;-61
2023/10/08 15:33:33;;;;;;;6.78;4.97;;;;;;;;;;10334336;28;20034;-62
2023/10/08 15:38:34;;;;;;;6.35;4.28;;;;;;;;;;10332999;28;20065;-63
2023/10/08 15:43:34;;;;;;;6.30;4.72;;;;;;;;;;10333747;28;20022;-63
2023/10/08 15:48:37;;;;;;;12.43;4.55;;;;;;;;;;10332919;28;20402;-63
2023/10/08 15:53:39;;;;;;;6.18;4.80;;;;;;;;;;10331608;28;20030;-62
2023/10/08 15:58:40;;;;;;;11.52;3.92;;;;;;;;;;10332202;28;20521;-61
2023/10/08 16:03:41;;;;;;;6.95;3.95;;;;;;;;;;10331827;28;20034;-62
2023/10/08 16:08:42;;;;;;;6.90;4.22;;;;;;;;;;10331243;28;20034;-62
2023/10/08 16:13:43;;;;;;;5.15;4.03;;;;;;;;;;10331249;28;20050;-62
2023/10/08 16:18:43;;;;;;;5.63;4.35;;;;;;;;;;10331394;28;20234;-63
2023/10/08 16:23:44;;;;;;;10.90;4.10;;;;;;;;;;10332074;28;20498;-63
2023/10/08 16:28:44;;;;;;;7.40;4.30;;;;;;;;;;10329990;28;20038;-63
2023/10/08 16:33:45;;;;;;;11.85;4.07;;;;;;;;;;10330692;28;20030;-62
2023/10/08 16:38:46;;;;;;;13.32;4.60;;;;;;;;;;10330571;28;20042;-62
2023/10/08 16:43:46;;;;;;;6.40;3.95;;;;;;;;;;10330152;28;20463;-62
2023/10/08 16:48:47;;;;;;;7.07;4.40;;;;;;;;;;10328344;28;20446;-62
2023/10/08 16:53:47;;;;;;;6.40;3.78;;;;;;;;;;10330901;28;20474;-62
2023/10/08 16:58:48;;;;;;;10.15;4.43;;;;;;;;;;10330235;28;20463;-63
2023/10/08 17:03:49;;;;;;;27.40;5.70;;;;;;;;;;10328909;28;20033;-64
2023/10/08 17:08:50;;;;;;;19.90;6.30;;;;;;;;;;10329902;28;20030;-63
2023/10/08 17:13:50;;;;;;;10.45;5.40;;;;;;;;;;10329241;28;20061;-62
2023/10/08 17:18:51;;;;;;;11.38;4.85;;;;;;;;;;10329079;28;20081;-63
2023/10/08 17:23:51;;;;;;;17.70;5.10;;;;;;;;;;10328289;28;20027;-63
2023/10/08 17:28:52;;;;;;;24.45;6.00;;;;;;;;;;10327410;28;20026;-63
2023/10/08 17:33:52;;;;;;;15.27;5.85;;;;;;;;;;10326254;28;20092;-60
2023/10/08 17:38:53;;;;;;;21.85;6.10;;;;;;;;;;10328336;28;20039;-61
2023/10/08 17:43:54;;;;;;;11.75;6.18;;;;;;;;;;10328967;28;20038;-63
2023/10/08 17:48:54;;;;;;;20.48;6.65;;;;;;;;;;10329452;28;20036;-61
2023/10/08 17:53:55;;;;;;;13.10;5.53;;;;;;;;;;10328389;28;20117;-63
2023/10/08 17:58:56;;;;;;;19.85;6.10;;;;;;;;;;10328832;28;20075;-63
2023/10/08 18:03:56;;;;;;;10.93;6.03;;;;;;;;;;10328278;28;20026;-63
2023/10/08 18:08:57;;;;;;;17.52;5.63;;;;;;;;;;10328608;28;20049;-62
2023/10/08 18:13:57;;;;;;;12.65;5.78;;;;;;;;;;10327747;28;20453;-63
2023/10/08 18:18:58;;;;;;;18.27;6.05;;;;;;;;;;10328486;28;20375;-62
2023/10/08 18:24:00;;;;;;;9.00;5.22;;;;;;;;;;10328278;28;20117;-63
2023/10/08 18:29:02;;;;;;;10.55;5.65;;;;;;;;;;10327902;28;20049;-63
2023/10/08 18:34:03;;;;;;;13.18;5.75;;;;;;;;;;10327222;28;20034;-63
2023/10/08 18:39:13;;;;;;;16.00;5.80;;;;;;;;;;10327707;28;20038;-62
2023/10/08 18:44:16;;;;;;;11.40;5.20;;;;;;;;;;10327538;28;20109;-63
2023/10/08 18:49:17;;;;;;;15.15;5.65;;;;;;;;;;10327679;28;20105;-63
2023/10/08 18:54:17;;;;;;;11.10;5.22;;;;;;;;;;10327287;28;20042;-63
2023/10/08 18:59:19;;;;;;;14.18;5.47;;;;;;;;;;10327478;28;20034;-63
2023/10/08 19:04:20;;;;;;;9.98;5.43;;;;;;;;;;10327234;28;20134;-63
2023/10/08 19:09:23;;;;;;;14.95;5.57;;;;;;;;;;10327293;28;20487;-61
2023/10/08 19:14:24;;;;;;;8.77;5.57;;;;;;;;;;10326510;28;20109;-62
2023/10/08 19:19:25;;;;;;;9.50;5.68;;;;;;;;;;10326347;28;20536;-63
2023/10/08 19:24:25;;;;;;;8.85;5.13;;;;;;;;;;10326982;28;20160;-63
2023/10/08 19:29:26;;;;;;;12.95;5.05;;;;;;;;;;10326640;28;20429;-62
2023/10/08 19:34:29;;;;;;;10.65;5.30;;;;;;;;;;10326707;28;20493;-62
2023/10/08 19:39:30;;;;;;;15.98;5.68;;;;;;;;;;10326117;28;20117;-62
2023/10/08 19:44:32;;;;;;;10.05;4.78;;;;;;;;;;10326505;28;20412;-61
2023/10/08 19:49:33;;;;;;;11.38;5.70;;;;;;;;;;10326149;28;20038;-63
2023/10/08 19:54:35;;;;;;;12.15;5.18;;;;;;;;;;10328334;28;20042;-62
2023/10/08 19:59:35;;;;;;;8.00;5.25;;;;;;;;;;10333523;28;20042;-62
2023/10/08 20:04:36;;;;;;;11.57;5.65;;;;;;;;;;10332977;28;20023;-63
2023/10/08 20:09:37;;;;;;;13.82;5.47;;;;;;;;;;10333226;28;20034;-62
2023/10/08 20:14:37;;;;;;;14.13;5.55;;;;;;;;;;10332442;28;20046;-62
2023/10/08 20:19:38;;;;;;;13.05;5.72;;;;;;;;;;10332275;28;20023;-62
2023/10/08 20:24:39;;;;;;;10.65;5.82;;;;;;;;;;10332183;28;20033;-63
2023/10/08 20:29:39;;;;;;;10.07;5.78;;;;;;;;;;10332305;28;20035;-63
2023/10/08 20:34:40;;;;;;;12.82;5.82;;;;;;;;;;10332538;28;20046;-62
2023/10/08 20:39:42;;;;;;;14.70;5.55;;;;;;;;;;10331879;28;20034;-62
2023/10/08 20:44:43;;;;;;;10.30;5.15;;;;;;;;;;10331080;28;20490;-62
2023/10/08 20:49:43;;;;;;;12.57;5.57;;;;;;;;;;10330608;28;20034;-63
2023/10/08 20:54:47;;;;;;;6.60;5.18;;;;;;;;;;10330246;28;20038;-62
2023/10/08 20:59:49;;;;;;;13.88;5.43;;;;;;;;;;10330518;28;20076;-62
2023/10/08 21:04:49;;;;;;;11.07;5.88;;;;;;;;;;10329998;28;20097;-61
2023/10/08 21:09:50;;;;;;;12.38;5.22;;;;;;;;;;10330357;28;20045;-61
2023/10/08 21:14:51;;;;;;;5.93;4.40;;;;;;;;;;10329998;28;20053;-62
2023/10/08 21:19:52;;;;;;;10.20;4.90;;;;;;;;;;10329117;28;20533;-62
2023/10/08 21:24:52;;;;;;;9.40;4.75;;;;;;;;;;10329219;28;20030;-64
2023/10/08 21:29:53;;;;;;;12.57;5.80;;;;;;;;;;10328508;28;20026;-64
2023/10/08 21:34:55;;;;;;;8.88;5.47;;;;;;;;;;10328887;28;20108;-64
2023/10/08 21:39:56;;;;;;;23.77;5.80;;;;;;;;;;10329349;28;20113;-63
2023/10/08 21:44:58;;;;;;;16.50;6.15;;;;;;;;;;10328268;28;20445;-61
2023/10/08 21:49:59;;;;;;;21.92;5.95;;;;;;;;;;10328198;28;20033;-63
2023/10/08 21:55:00;;;;;;;13.70;5.53;;;;;;;;;;10327546;28;20367;-61
2023/10/08 22:00:01;;;;;;;15.15;5.85;;;;;;;;;;10327598;28;20034;-61
2023/10/08 22:05:03;;;;;;;11.73;6.63;;;;;;;;;;10328037;28;20065;-59
2023/10/08 22:10:08;;;;;;;30.73;7.25;;;;;;;;;;10326609;28;20029;-62
2023/10/08 22:15:25;;;;;;;22.02;6.75;;;;;;;;;;10323670;28;20528;-62
2023/10/08 22:25:36;;;;;;;23.38;7.45;;;;;;;;;;10327776;28;20320;-62
2023/10/08 22:30:54;;;;;;;18.05;8.10;;;;;;;;;;10327585;28;20577;-61
2023/10/08 22:35:55;;;;;;;18.58;8.15;;;;;;;;;;10327606;28;20510;-61
2023/10/08 22:46:01;;;;;;;14.88;7.47;;;;;;;;;;10327964;28;20030;-61
2023/10/08 22:51:03;;;;;;;12.40;7.75;;;;;;;;;;10327503;28;20030;-62
2023/10/08 22:56:06;;;;;;;24.33;7.78;;;;;;;;;;10327303;28;20077;-62
2023/10/08 23:01:18;;;;;;;13.43;7.20;;;;;;;;;;10327350;28;20026;-62
2023/10/08 23:06:21;;;;;;;16.35;8.27;;;;;;;;;;10326773;28;20029;-62
2023/10/08 23:11:21;;;;;;;13.88;7.88;;;;;;;;;;10326789;28;20043;-62
2023/10/08 23:16:23;;;;;;;12.30;7.57;;;;;;;;;;10326304;28;20030;-62
2023/10/08 23:21:25;;;;;;;13.18;7.82;;;;;;;;;;10326327;28;20402;-62
2023/10/08 23:26:26;;;;;;;14.18;8.63;;;;;;;;;;10326825;28;20038;-62
2023/10/08 23:31:28;;;;;;;12.60;7.75;;;;;;;;;;10332572;28;20127;-62
2023/10/08 23:36:51;;;;;;;19.00;8.55;;;;;;;;;;10334354;28;20030;-62
2023/10/08 23:41:50;;;;;;;13.75;7.97;;;;;;;;;;10333248;28;20046;-60
2023/10/08 23:47:03;;;;;;;12.27;8.02;;;;;;;;;;10333639;28;20041;-60
2023/10/08 23:52:08;;;;;;;14.30;8.30;;;;;;;;;;10333296;28;20079;-60
2023/10/08 23:57:18;;;;;;;13.05;8.52;;;;;;;;;;10333157;28;20381;-59
